.
WxDataArchive / Data Records for 2015-03-31
2015-03-30 March 2015 2015-04-01

Data Records for Tuesday, 31 March 2015

Time	Temp	Chill	HIndex	Humid	Dewpt	 Wind 	HiWind	WindDir	Rain 	Barom
-----	----	-----	------	-----	-----	------	------	-------	-----	-----
00:00	46.0	46.0	46.0	80	40.2	0	0	---	0.00	29.901 
00:05	45.7	45.7	45.7	80	39.9	0	0	---	0.00	29.901 
00:10	45.4	45.4	45.4	80	39.6	0	0	---	0.00	29.901 
00:15	45.1	45.1	45.1	80	39.3	0	0	---	0.00	29.894 
00:20	44.8	44.8	44.8	81	39.3	0	1	270	0.00	29.894 
00:25	44.6	44.6	44.6	81	39.1	0	1	270	0.00	29.894 
00:30	44.3	44.3	44.3	81	38.8	0	1	270	0.00	29.887 
00:35	44.2	44.2	44.2	82	39.1	0	0	---	0.00	29.887 
00:40	44.1	44.1	44.1	82	39.0	0	0	---	0.00	29.887 
00:45	43.8	43.8	43.8	83	39.0	0	0	---	0.00	29.883 
00:50	43.8	43.8	43.8	83	39.0	0	0	---	0.00	29.883 
00:55	43.6	43.6	43.6	83	38.8	0	1	270	0.00	29.883 
01:00	43.3	43.3	43.3	83	38.5	0	0	---	0.00	29.876 
01:05	43.3	43.3	43.3	83	38.5	0	0	---	0.00	29.876 
01:10	43.2	43.2	43.2	83	38.4	0	1	270	0.00	29.876 
01:15	43.2	43.2	43.2	83	38.4	0	1	270	0.00	29.859 
01:20	43.2	43.2	43.2	83	38.4	0	1	270	0.00	29.859 
01:25	43.2	43.2	43.2	83	38.4	0	1	270	0.00	29.859 
01:30	43.3	43.3	43.3	83	38.5	1	4	90	0.00	29.840 
01:35	43.5	43.5	43.5	82	38.4	0	1	135	0.00	29.840 
01:40	43.3	43.3	43.3	81	37.9	0	1	135	0.00	29.840 
01:45	43.3	43.3	43.3	81	37.9	0	0	---	0.00	29.834 
01:50	43.1	43.1	43.1	81	37.7	0	1	135	0.00	29.834 
01:55	42.8	42.8	42.8	81	37.4	0	0	---	0.00	29.834 
02:00	42.6	42.6	42.6	82	37.5	0	1	135	0.00	29.818 
02:05	42.6	42.6	42.6	82	37.5	0	1	135	0.00	29.818 
02:10	42.6	42.6	42.6	82	37.5	0	1	135	0.00	29.818 
02:15	42.6	42.6	42.6	82	37.5	0	1	135	0.00	29.802 
02:20	42.8	42.8	42.8	81	37.4	0	0	---	0.00	29.802 
02:25	43.1	43.1	43.1	80	37.4	0	2	135	0.00	29.802 
02:30	43.5	43.5	43.5	78	37.1	0	2	135	0.00	29.787 
02:35	43.9	43.9	43.9	77	37.2	0	1	135	0.00	29.787 
02:40	44.1	44.1	44.1	75	36.7	0	1	135	0.00	29.787 
02:45	44.3	44.3	44.3	75	36.9	0	1	135	0.00	29.784 
02:50	44.6	44.6	44.6	73	36.5	0	1	135	0.00	29.784 
02:55	44.9	44.9	44.9	71	36.1	0	1	135	0.00	29.784 
03:00	45.2	45.2	45.2	69	35.6	0	2	135	0.00	29.771 
03:05	45.5	45.5	45.5	69	35.9	0	1	135	0.00	29.771 
03:10	45.7	45.7	45.7	68	35.8	0	1	135	0.00	29.771 
03:15	46.0	46.0	46.0	66	35.3	0	2	248	0.00	29.756 
03:20	46.1	46.1	46.1	65	35.0	0	2	248	0.00	29.756 
03:25	46.4	46.4	46.4	64	34.9	0	2	248	0.00	29.756 
03:30	46.7	46.7	46.7	62	34.4	1	4	315	0.00	29.746 
03:35	47.1	47.1	47.1	61	34.4	1	5	248	0.00	29.746 
03:40	47.6	47.6	47.6	60	34.4	1	3	248	0.00	29.746 
03:45	47.7	47.7	47.7	59	34.1	1	5	248	0.00	29.723 
03:50	48.0	48.0	48.0	58	33.9	1	5	248	0.00	29.723 
03:55	48.2	48.2	48.2	57	33.7	2	5	248	0.00	29.723 
04:00	48.5	48.5	48.5	56	33.5	1	5	248	0.00	29.705 
04:05	48.6	48.6	48.6	55	33.2	1	5	270	0.00	29.705 
04:10	48.6	48.6	48.6	55	33.2	1	5	248	0.00	29.705 
04:15	48.8	48.8	48.8	55	33.4	1	6	270	0.00	29.689 
04:20	48.9	48.9	48.9	54	33.0	1	5	248	0.00	29.689 
04:25	48.9	48.9	48.9	54	33.0	1	4	270	0.00	29.689 
04:30	49.2	49.2	49.2	54	33.3	1	6	248	0.00	29.683 
04:35	49.2	49.2	49.2	54	33.3	1	3	270	0.00	29.683 
04:40	49.2	49.2	49.2	54	33.3	1	7	248	0.00	29.683 
04:45	49.4	49.4	49.4	54	33.5	1	4	248	0.00	29.671 
04:50	49.4	49.4	49.4	54	33.5	1	7	225	0.00	29.671 
04:55	49.4	49.4	49.4	54	33.5	1	3	225	0.00	29.671 
05:00	49.2	49.2	49.2	54	33.3	0	3	248	0.00	29.670 
05:05	49.1	49.1	49.1	55	33.6	0	3	248	0.00	29.670 
05:10	49.1	49.1	49.1	55	33.6	1	4	248	0.00	29.670 
05:15	49.1	49.1	49.1	55	33.6	1	3	248	0.00	29.658 
05:20	49.1	49.1	49.1	55	33.6	1	4	248	0.00	29.658 
05:25	48.9	48.9	48.9	55	33.5	1	4	248	0.00	29.658 
05:30	49.1	49.1	49.1	55	33.6	1	5	248	0.00	29.655 
05:35	49.2	49.2	49.2	55	33.7	1	6	248	0.00	29.655 
05:40	49.2	49.2	49.2	55	33.7	1	4	270	0.00	29.655 
05:45	49.2	49.2	49.2	55	33.7	1	4	248	0.00	29.658 
05:50	49.2	49.2	49.2	56	34.2	1	4	248	0.00	29.658 
05:55	49.2	49.2	49.2	55	33.7	1	5	270	0.00	29.658 
06:00	49.2	49.2	49.2	56	34.2	1	5	270	0.00	29.670 
06:05	49.1	49.1	49.1	56	34.1	0	2	270	0.00	29.670 
06:10	48.8	48.8	48.8	56	33.8	0	2	270	0.00	29.670 
06:15	48.5	48.5	48.5	57	34.0	0	3	270	0.00	29.667 
06:20	48.5	48.5	48.5	57	34.0	1	3	270	0.00	29.667 
06:25	48.6	48.6	48.6	57	34.1	1	4	270	0.00	29.667 
06:30	48.8	48.8	48.8	57	34.3	1	3	270	0.00	29.656 
06:35	49.1	49.1	49.1	56	34.1	1	6	248	0.00	29.656 
06:40	49.2	49.2	49.2	56	34.2	1	3	248	0.00	29.656 
06:45	49.2	49.2	49.2	56	34.2	1	6	248	0.00	29.655 
06:50	49.2	49.2	49.2	56	34.2	1	6	248	0.00	29.655 
06:55	49.2	49.2	49.2	56	34.2	1	6	248	0.00	29.655 
07:00	49.2	49.2	49.2	57	34.6	1	6	248	0.00	29.651 
07:05	49.1	49.1	49.1	57	34.5	1	3	248	0.00	29.651 
07:10	49.1	49.1	49.1	57	34.5	1	3	248	0.00	29.651 
07:15	49.1	49.1	49.1	57	34.5	1	6	248	0.00	29.657 
07:20	49.1	49.1	49.1	57	34.5	1	4	248	0.00	29.657 
07:25	48.9	48.9	48.9	57	34.3	1	4	248	0.00	29.657 
07:30	48.9	48.9	48.9	58	34.8	1	4	248	0.00	29.660 
07:35	48.8	48.8	48.8	58	34.7	1	4	248	0.00	29.660 
07:40	48.6	48.6	48.6	58	34.5	1	3	248	0.00	29.660 
07:45	48.5	48.5	48.5	59	34.8	1	5	248	0.00	29.662 
07:50	48.3	48.3	48.3	59	34.6	1	4	248	0.00	29.662 
07:55	48.2	48.2	48.2	60	35.0	0	3	248	0.00	29.662 
08:00	48.2	48.2	48.2	60	35.0	1	3	248	0.00	29.669 
08:05	48.2	48.2	48.2	60	35.0	1	4	248	0.00	29.669 
08:10	48.2	48.2	48.2	60	35.0	1	3	248	0.00	29.669 
08:15	48.3	48.3	48.3	60	35.1	1	3	248	0.00	29.674 
08:20	48.3	48.3	48.3	60	35.1	1	3	248	0.00	29.674 
08:25	48.5	48.5	48.5	60	35.3	1	3	248	0.00	29.674 
08:30	48.5	48.5	48.5	60	35.3	1	4	248	0.00	29.675 
08:35	48.6	48.6	48.6	60	35.3	1	4	248	0.00	29.675 
08:40	48.8	48.8	48.8	60	35.5	2	4	248	0.00	29.675 
08:45	48.9	48.9	48.9	60	35.6	2	3	270	0.00	29.680 
08:50	49.1	49.1	49.1	60	35.8	1	4	270	0.00	29.680 
08:55	49.2	49.2	49.2	59	35.5	2	4	270	0.00	29.680 
09:00	49.5	49.5	49.5	59	35.8	2	4	270	0.00	29.673 
09:05	49.8	49.8	49.8	58	35.6	2	4	270	0.00	29.673 
09:10	50.2	50.2	50.2	57	35.6	3	5	270	0.00	29.673 
09:15	50.5	50.5	50.5	57	35.8	3	5	270	0.00	29.688 
09:20	50.8	50.8	50.8	56	35.7	3	6	315	0.00	29.688 
09:25	51.0	51.0	51.0	57	36.3	2	4	292	0.00	29.688 
09:30	51.1	51.1	51.1	56	36.0	2	5	248	0.00	29.690 
09:35	51.1	51.1	51.1	56	36.0	3	6	270	0.00	29.690 
09:40	51.3	51.3	51.3	56	36.1	3	11	338	0.00	29.690 
09:45	51.4	51.4	51.4	56	36.2	3	5	315	0.00	29.697 
09:50	51.4	51.4	51.4	56	36.2	4	11	292	0.00	29.697 
09:55	51.4	51.4	51.4	56	36.2	3	7	315	0.00	29.697 
10:00	51.3	51.3	51.3	56	36.1	4	11	315	0.00	29.705 
10:05	51.4	51.4	51.4	58	37.1	3	10	270	0.00	29.705 
10:10	51.9	51.9	51.9	57	37.1	4	7	315	0.00	29.705 
10:15	51.9	51.9	51.9	57	37.1	3	10	292	0.00	29.709 
10:20	52.2	52.2	52.2	56	37.0	3	6	292	0.00	29.709 
10:25	52.3	52.3	52.3	57	37.5	3	7	292	0.00	29.709 
10:30	52.6	52.6	52.6	56	37.4	3	5	292	0.00	29.722 
10:35	53.2	53.2	53.2	56	37.9	2	6	315	0.00	29.722 
10:40	53.3	53.3	53.3	55	37.5	3	10	292	0.00	29.722 
10:45	53.5	53.5	53.5	54	37.3	3	7	292	0.00	29.721 
10:50	53.5	53.5	53.5	55	37.7	3	6	292	0.00	29.721 
10:55	53.9	53.9	53.9	55	38.1	3	11	270	0.00	29.721 
11:00	54.2	54.2	54.2	55	38.4	3	9	315	0.00	29.734 
11:05	54.2	54.2	54.2	54	37.9	4	11	270	0.00	29.734 
11:10	54.2	54.2	54.2	55	38.4	4	14	292	0.00	29.734 
11:15	54.2	54.2	54.2	55	38.4	4	7	292	0.00	29.743 
11:20	54.4	54.4	54.4	56	39.0	4	10	315	0.00	29.743 
11:25	54.1	54.1	54.1	58	39.7	4	14	292	0.00	29.743 
11:30	53.6	53.6	53.6	57	38.7	6	13	292	0.00	29.759 
11:35	53.3	53.3	53.3	59	39.3	5	11	292	0.00	29.759 
11:40	53.1	53.1	53.1	60	39.6	4	11	292	0.00	29.759 
11:45	52.9	52.9	52.9	61	39.8	4	10	292	0.00	29.772 
11:50	52.3	52.3	52.3	62	39.7	4	9	338	0.00	29.772 
11:55	52.5	52.5	52.5	63	40.3	3	10	0	0.00	29.772 
12:00	51.9	51.9	51.9	64	40.1	4	7	338	0.00	29.786 
12:05	51.3	51.3	51.3	64	39.5	5	10	292	0.00	29.786 
12:10	50.7	50.7	50.7	66	39.8	4	11	315	0.00	29.786 
12:15	50.1	50.1	50.1	66	39.2	4	9	338	0.00	29.809 
12:20	49.6	49.6	49.6	67	39.1	3	7	292	0.00	29.809 
12:25	48.8	48.8	48.8	67	38.3	3	9	315	0.00	29.809 
12:30	48.0	46.6	48.0	69	38.3	4	9	292	0.00	29.824 
12:35	47.9	47.9	47.9	71	39.0	3	8	292	0.00	29.824 
12:40	47.7	47.7	47.7	69	38.0	3	7	338	0.00	29.824 
12:45	47.7	47.7	47.7	69	38.0	3	7	292	0.00	29.828 
12:50	47.6	46.1	47.6	68	37.6	4	10	292	0.00	29.828 
12:55	47.4	47.4	47.4	68	37.4	3	9	338	0.00	29.828 
13:00	47.4	47.4	47.4	68	37.4	3	7	338	0.00	29.836 
13:05	47.9	47.9	47.9	67	37.5	3	7	338	0.00	29.836 
13:10	48.2	48.2	48.2	66	37.4	2	4	0	0.00	29.836 
13:15	48.2	48.2	48.2	64	36.6	3	8	315	0.00	29.839 
13:20	48.2	48.2	48.2	64	36.6	3	12	292	0.00	29.839 
13:25	48.3	48.3	48.3	64	36.7	3	7	292	0.00	29.839 
13:30	48.2	48.2	48.2	62	35.8	2	6	315	0.00	29.841 
13:35	48.5	48.5	48.5	63	36.5	3	6	338	0.00	29.841 
13:40	48.2	48.2	48.2	63	36.2	3	10	338	0.00	29.841 
13:45	48.2	48.2	48.2	64	36.6	3	7	338	0.00	29.845 
13:50	48.8	48.8	48.8	64	37.2	3	6	338	0.00	29.845 
13:55	49.2	49.2	49.2	63	37.1	3	7	292	0.00	29.845 
14:00	49.1	47.8	49.1	61	36.2	4	10	292	0.00	29.850 
14:05	49.1	49.1	49.1	61	36.2	2	7	0	0.00	29.850 
14:10	49.2	49.2	49.2	60	35.9	2	8	338	0.00	29.850 
14:15	49.2	49.2	49.2	60	35.9	2	6	338	0.00	29.854 
14:20	49.2	49.2	49.2	60	35.9	2	9	338	0.00	29.854 
14:25	49.2	49.2	49.2	59	35.5	2	5	338	0.00	29.854 
14:30	49.4	49.4	49.4	58	35.2	3	7	315	0.00	29.868 
14:35	49.4	49.4	49.4	57	34.8	3	9	338	0.00	29.868 
14:40	49.2	47.9	49.2	57	34.6	4	11	338	0.00	29.868 
14:45	49.4	49.4	49.4	58	35.2	2	5	338	0.00	29.871 
14:50	49.4	49.4	49.4	59	35.7	3	7	338	0.00	29.871 
14:55	49.6	49.6	49.6	60	36.3	3	9	0	0.00	29.871 
15:00	50.1	50.1	50.1	57	35.5	4	11	292	0.00	29.878 
15:05	50.1	50.1	50.1	58	35.9	3	9	315	0.00	29.878 
15:10	49.8	49.8	49.8	58	35.6	2	8	0	0.00	29.878 
15:15	49.2	49.2	49.2	58	35.1	3	7	338	0.00	29.882 
15:20	48.8	48.8	48.8	59	35.1	2	6	338	0.00	29.882 
15:25	49.1	49.1	49.1	57	34.5	3	7	338	0.00	29.882 
15:30	49.4	49.4	49.4	59	35.7	3	7	292	0.00	29.883 
15:35	49.8	49.8	49.8	58	35.6	2	7	45	0.00	29.883 
15:40	50.1	50.1	50.1	55	34.6	2	5	338	0.00	29.883 
15:45	50.4	50.4	50.4	56	35.3	1	5	270	0.00	29.891 
15:50	50.2	50.2	50.2	55	34.7	3	7	338	0.00	29.891 
15:55	49.8	49.8	49.8	58	35.6	2	9	338	0.00	29.891 
16:00	49.8	49.8	49.8	57	35.2	2	7	22	0.00	29.896 
16:05	50.1	50.1	50.1	56	35.0	2	5	315	0.00	29.896 
16:10	50.1	50.1	50.1	56	35.0	1	5	338	0.00	29.896 
16:15	49.6	49.6	49.6	54	33.6	3	6	338	0.00	29.901 
16:20	49.5	49.5	49.5	55	34.0	1	5	292	0.00	29.901 
16:25	49.9	49.9	49.9	55	34.4	2	10	338	0.00	29.901 
16:30	50.1	50.1	50.1	54	34.1	2	7	338	0.00	29.910 
16:35	49.9	49.9	49.9	54	33.9	2	6	338	0.00	29.910 
16:40	49.5	49.5	49.5	55	34.0	1	4	338	0.00	29.910 
16:45	49.4	49.4	49.4	55	33.9	1	3	45	0.00	29.906 
16:50	49.5	49.5	49.5	55	34.0	1	6	338	0.00	29.906 
16:55	49.9	49.9	49.9	53	33.5	2	5	22	0.00	29.906 
17:00	50.2	50.2	50.2	54	34.2	1	4	22	0.00	29.909 
17:05	50.1	50.1	50.1	50	32.2	1	6	292	0.00	29.909 
17:10	49.9	49.9	49.9	53	33.5	1	3	292	0.00	29.909 
17:15	50.1	50.1	50.1	52	33.2	1	4	315	0.00	29.911 
17:20	50.1	50.1	50.1	53	33.6	1	4	90	0.00	29.911 
17:25	49.8	49.8	49.8	53	33.4	1	3	22	0.00	29.911 
17:30	49.5	49.5	49.5	53	33.1	0	3	68	0.00	29.913 
17:35	49.4	49.4	49.4	52	32.5	0	2	68	0.00	29.913 
17:40	49.2	49.2	49.2	51	31.9	1	3	68	0.00	29.913 
17:45	49.6	49.6	49.6	50	31.7	1	3	292	0.00	29.913 
17:50	50.4	50.4	50.4	49	32.0	2	5	338	0.00	29.913 
17:55	51.3	51.3	51.3	48	32.3	1	5	292	0.00	29.913 
18:00	51.7	51.7	51.7	48	32.6	1	3	292	0.00	29.915 
18:05	51.3	51.3	51.3	49	32.8	2	6	315	0.00	29.915 
18:10	50.8	50.8	50.8	50	32.8	1	3	292	0.00	29.915 
18:15	50.4	50.4	50.4	50	32.5	0	2	292	0.00	29.918 
18:20	50.1	50.1	50.1	51	32.7	0	2	270	0.00	29.918 
18:25	49.6	49.6	49.6	51	32.2	0	2	270	0.00	29.918 
18:30	49.4	49.4	49.4	51	32.0	0	2	270	0.00	29.924 
18:35	49.2	49.2	49.2	51	31.9	0	1	270	0.00	29.924 
18:40	48.9	48.9	48.9	51	31.6	0	2	270	0.00	29.924 
18:45	48.8	48.8	48.8	52	32.0	0	0	---	0.00	29.928 
18:50	48.8	48.8	48.8	52	32.0	0	0	---	0.00	29.928 
18:55	48.8	48.8	48.8	52	32.0	0	1	270	0.00	29.928 
19:00	48.9	48.9	48.9	52	32.1	0	0	---	0.01	29.930 
19:05	49.1	49.1	49.1	51	31.8	0	2	270	0.00	29.930 
19:10	49.1	49.1	49.1	50	31.3	0	1	270	0.00	29.930 
19:15	49.1	49.1	49.1	50	31.3	0	0	---	0.00	29.933 
19:20	49.1	49.1	49.1	50	31.3	0	0	---	0.00	29.933 
19:25	49.1	49.1	49.1	50	31.3	0	1	270	0.00	29.933 
19:30	49.1	49.1	49.1	50	31.3	0	1	270	0.00	29.938 
19:35	48.9	48.9	48.9	50	31.1	0	0	---	0.00	29.938 
19:40	48.9	48.9	48.9	51	31.6	0	0	---	0.00	29.938 
19:45	48.6	48.6	48.6	51	31.3	0	0	---	0.00	29.944 
19:50	48.5	48.5	48.5	51	31.2	0	0	---	0.00	29.944 
19:55	48.2	48.2	48.2	52	31.4	0	0	---	0.00	29.944 
20:00	47.7	47.7	47.7	53	31.4	0	0	---	0.00	29.947 
20:05	47.3	47.3	47.3	53	31.0	0	0	---	0.00	29.947 
20:10	46.8	46.8	46.8	54	31.0	0	0	---	0.00	29.947 
20:15	46.4	46.4	46.4	56	31.6	0	0	---	0.00	29.948 
20:20	46.0	46.0	46.0	57	31.6	0	0	---	0.00	29.948 
20:25	45.5	45.5	45.5	58	31.6	0	0	---	0.00	29.948 
20:30	45.1	45.1	45.1	58	31.2	0	0	---	0.00	29.956 
20:35	44.8	44.8	44.8	59	31.4	0	0	---	0.00	29.956 
20:40	44.3	44.3	44.3	60	31.3	0	0	---	0.00	29.956 
20:45	44.1	44.1	44.1	61	31.5	0	0	---	0.00	29.964 
20:50	43.6	43.6	43.6	62	31.5	0	2	270	0.00	29.964 
20:55	43.6	43.6	43.6	64	32.2	0	1	270	0.00	29.964 
21:00	43.6	43.6	43.6	65	32.6	0	1	270	0.00	29.967 
21:05	43.6	43.6	43.6	66	33.0	0	1	270	0.00	29.967 
21:10	43.6	43.6	43.6	67	33.4	0	2	270	0.00	29.967 
21:15	43.5	43.5	43.5	68	33.7	0	1	270	0.00	29.975 
21:20	43.2	43.2	43.2	69	33.7	0	0	---	0.00	29.975 
21:25	42.9	42.9	42.9	69	33.4	0	0	---	0.00	29.975 
21:30	42.6	42.6	42.6	69	33.2	0	0	---	0.00	29.980 
21:35	42.3	42.3	42.3	70	33.2	0	1	270	0.00	29.980 
21:40	42.3	42.3	42.3	71	33.6	0	1	270	0.00	29.980 
21:45	42.2	42.2	42.2	72	33.8	0	0	---	0.00	29.983 
21:50	41.9	41.9	41.9	72	33.5	0	0	---	0.00	29.983 
21:55	41.5	41.5	41.5	72	33.2	0	0	---	0.00	29.983 
22:00	41.2	41.2	41.2	73	33.2	0	0	---	0.00	29.984 
22:05	40.8	40.8	40.8	74	33.2	0	1	270	0.00	29.984 
22:10	40.6	40.6	40.6	75	33.3	0	0	---	0.00	29.984 
22:15	40.3	40.3	40.3	75	33.0	0	1	270	0.00	29.985 
22:20	40.1	40.1	40.1	75	32.8	0	0	---	0.00	29.985 
22:25	39.8	39.8	39.8	76	32.9	0	0	---	0.00	29.985 
22:30	39.6	39.6	39.6	77	33.0	0	1	270	0.00	29.983 
22:35	39.5	39.5	39.5	78	33.2	0	1	270	0.00	29.983 
22:40	39.5	39.5	39.5	79	33.5	0	1	270	0.00	29.983 
22:45	39.3	39.3	39.3	78	33.0	0	0	---	0.00	29.990 
22:50	39.1	39.1	39.1	78	32.8	0	0	---	0.00	29.990 
22:55	38.8	38.8	38.8	80	33.2	0	1	270	0.00	29.990 
23:00	38.5	38.5	38.5	80	32.9	0	0	---	0.00	29.992 
23:05	38.3	38.3	38.3	81	33.0	0	0	---	0.00	29.992 
23:10	38.2	38.2	38.2	81	32.9	0	1	270	0.00	29.992 
23:15	38.0	38.0	38.0	81	32.7	0	1	270	0.00	29.988 
23:20	37.9	37.9	37.9	82	32.9	0	1	270	0.00	29.988 
23:25	37.8	37.8	37.8	82	32.8	0	1	270	0.00	29.988 
23:30	37.6	37.6	37.6	82	32.6	0	1	270	0.00	29.989 
23:35	37.5	37.5	37.5	83	32.8	0	1	270	0.00	29.989 
23:40	37.2	37.2	37.2	83	32.5	0	1	270	0.00	29.989 
23:45	37.2	37.2	37.2	84	32.8	0	2	135	0.00	29.987 
23:50	37.2	37.2	37.2	84	32.8	0	1	135	0.00	29.987 
23:55	37.2	37.2	37.2	84	32.8	0	1	135	0.00	29.987 

CoCoRaHS
IN-AL-39
A2 Web Hosting
Creative Commons License
GoDaddy
search engine by freefind advanced

loaded 2018-11-16 12:02:14 • last modified 2010-11-18 10:43:29
Privacy PolicyDisclaimer
• wx.awcolley.com is powered by PmWiki v.2002016 •
• all content (unless otherwise noted) © 2018 A W Colley